OEXDW LIPB-LIPB

Flight info

Callsign OEXDW
Flight time 0h 0m
Altitude 8500
Route LOCAL FLIGHT
Aircraft AS50/L-VGDW/C

Departure

Time 2026-04-25 19:51
Airport Bolzano Airport (LIPB)

Arrival

Time 2026-04-25 19:52
Airport Bolzano Airport (LIPB)
Time Latitude Longitude Altitude Speed Heading
2026-04-25 19:47 46.46289 11.32884 839 ft 0 kts 102°
2026-04-25 19:50 46.46428 11.32806 1140 ft 48 kts 350°
2026-04-25 19:50 46.46870 11.32913 1256 ft 72 kts 18°
2026-04-25 19:50 46.47390 11.33071 1284 ft 83 kts 23°
2026-04-25 19:51 46.47536 11.33474 1490 ft 31 kts 229°
2026-04-25 19:51 46.47678 11.32844 1320 ft 103 kts 306°
2026-04-25 19:51 46.48212 11.32070 1381 ft 109 kts 319°
2026-04-25 19:51 46.48767 11.31409 1516 ft 94 kts 323°
2026-04-25 19:52 46.49234 11.30884 1447 ft 75 kts 326°
2026-04-25 19:52 46.49661 11.30564 1335 ft 67 kts 351°
2026-04-25 19:52 46.49978 11.30700 1226 ft 32 kts 91°
2026-04-25 19:52 46.49942 11.30860 1050 ft 18 kts 197°
2026-04-25 19:53 46.49900 11.30806 850 ft 8 kts 242°
2026-04-25 19:53 46.49893 11.30781 814 ft 0 kts 246°
2026-04-25 19:55 46.49892 11.30771 851 ft 11 kts 227°
2026-04-25 19:55 46.49854 11.30542 1041 ft 37 kts 152°
2026-04-25 19:56 46.49758 11.30442 1112 ft 11 kts 67°
2026-04-25 19:56 46.49764 11.30482 923 ft 11 kts 83°
2026-04-25 19:56 46.49745 11.30514 816 ft 2 kts 63°
2026-04-25 19:56 46.49746 11.30513 810 ft 0 kts 65°
2026-04-25 19:57 46.49754 11.30519 837 ft 4 kts 38°
2026-04-25 19:58 46.49855 11.30629 962 ft 41 kts 59°
2026-04-25 19:58 46.50028 11.31233 1163 ft 86 kts 72°
2026-04-25 19:58 46.50208 11.32053 1550 ft 90 kts 70°
2026-04-25 19:58 46.50552 11.33024 1584 ft 119 kts 62°
2026-04-25 19:59 46.51012 11.34067 1755 ft 123 kts 56°
2026-04-25 19:59 46.51584 11.34958 2026 ft 117 kts 41°
2026-04-25 19:59 46.52258 11.35555 2333 ft 113 kts 30°
2026-04-25 19:59 46.53001 11.36101 2393 ft 123 kts 25°
2026-04-25 20:00 46.53825 11.36368 2462 ft 122 kts 15°
2026-04-25 20:00 46.54086 11.36478 2510 ft 119 kts 19°
2026-04-25 20:00 46.55410 11.36811 2712 ft 116 kts
2026-04-25 20:00 46.56233 11.37005 2560 ft 121 kts 16°
2026-04-25 20:01 46.57769 11.37646 2490 ft 104 kts 21°
2026-04-25 20:01 46.58409 11.37971 2632 ft 91 kts 22°
2026-04-25 20:01 46.59002 11.38241 2738 ft 89 kts
2026-04-25 20:02 46.59605 11.38153 2834 ft 83 kts 357°
2026-04-25 20:02 46.60006 11.38140 2869 ft 24 kts 317°
2026-04-25 20:02 46.60115 11.37997 2708 ft 8 kts 205°
2026-04-25 20:02 46.60088 11.37974 2653 ft 5 kts 265°
2026-04-25 20:03 46.60084 11.37967 2646 ft 0 kts 280°
2026-04-25 20:38 46.60260 11.37964 2780 ft 65 kts 360°
2026-04-25 20:38 46.60737 11.37941 3211 ft 68 kts 349°
2026-04-25 20:38 46.61143 11.37688 3650 ft 67 kts
2026-04-25 20:38 46.61568 11.37966 3973 ft 81 kts 34°
2026-04-25 20:39 46.61941 11.38585 4339 ft 79 kts 52°
2026-04-25 20:39 46.62141 11.39223 4804 ft 68 kts 64°
2026-04-25 20:39 46.62218 11.39880 5185 ft 68 kts 82°
2026-04-25 20:39 46.62206 11.40103 5308 ft 69 kts 89°
2026-04-25 20:40 46.62104 11.41384 5806 ft 82 kts 90°
2026-04-25 20:40 46.62072 11.42192 6167 ft 79 kts 86°
2026-04-25 20:40 46.62121 11.42968 6470 ft 84 kts 80°
2026-04-25 20:40 46.61997 11.43761 6784 ft 83 kts 115°
2026-04-25 20:41 46.61577 11.44369 7091 ft 88 kts 131°
2026-04-25 20:41 46.61133 11.44953 7461 ft 84 kts 127°
2026-04-25 20:41 46.60750 11.45613 7755 ft 88 kts 120°
2026-04-25 20:41 46.60362 11.46374 7930 ft 101 kts 122°
2026-04-25 20:42 46.59890 11.47266 7403 ft 120 kts 129°
2026-04-25 20:42 46.59373 11.48142 6923 ft 110 kts 130°
2026-04-25 20:42 46.58867 11.48926 6458 ft 107 kts 149°
2026-04-25 20:42 46.58183 11.49198 6118 ft 102 kts 171°
2026-04-25 20:43 46.57578 11.49647 5542 ft 113 kts 121°
2026-04-25 20:43 46.57454 11.50780 4851 ft 117 kts 82°
2026-04-25 20:43 46.57852 11.51919 3658 ft 157 kts 44°
2026-04-25 20:43 46.58809 11.52616 2410 ft 166 kts 19°
2026-04-25 20:44 46.59630 11.53048 2484 ft 73 kts 87°
2026-04-25 20:44 46.59548 11.53256 2497 ft 30 kts 178°
2026-04-25 20:44 46.59298 11.53473 2852 ft 56 kts 123°
2026-04-25 20:44 46.59124 11.53959 3390 ft 54 kts 122°
2026-04-25 20:45 46.58962 11.54266 3941 ft 43 kts 135°
2026-04-25 20:45 46.58509 11.54355 4215 ft 85 kts 167°
2026-04-25 20:45 46.57877 11.54585 4508 ft 99 kts 154°
2026-04-25 20:45 46.57244 11.54919 4855 ft 101 kts 156°
2026-04-25 20:46 46.56537 11.55097 5092 ft 109 kts 164°
2026-04-25 20:46 46.55784 11.55326 5308 ft 113 kts 161°
2026-04-25 20:46 46.54999 11.55495 5523 ft 112 kts 170°
2026-04-25 20:46 46.54274 11.55544 5845 ft 107 kts 165°
2026-04-25 20:47 46.53506 11.55634 6015 ft 115 kts 175°
2026-04-25 20:47 46.52677 11.55246 5953 ft 136 kts 204°
2026-04-25 20:47 46.51817 11.54693 6006 ft 130 kts 191°
2026-04-25 20:47 46.50975 11.54624 6116 ft 117 kts 164°
2026-04-25 20:48 46.50320 11.55050 6437 ft 97 kts 137°
2026-04-25 20:48 46.49891 11.55789 6599 ft 97 kts 112°
2026-04-25 20:48 46.49776 11.56665 7033 ft 87 kts 86°
2026-04-25 20:48 46.49910 11.57449 7470 ft 78 kts 62°
2026-04-25 20:49 46.50054 11.58065 7753 ft 48 kts 87°
2026-04-25 20:49 46.50005 11.58420 7676 ft 29 kts 108°
2026-04-25 20:49 46.49860 11.58655 7586 ft 27 kts 96°
2026-04-25 20:49 46.49831 11.58768 7545 ft 0 kts 78°
2026-04-25 20:50 46.49737 11.58903 7598 ft 52 kts 124°
2026-04-25 20:51 46.49359 11.59454 7758 ft 96 kts 128°
2026-04-25 20:51 46.49005 11.60473 7514 ft 133 kts 111°
2026-04-25 20:51 46.48668 11.61793 7178 ft 148 kts 109°
2026-04-25 20:51 46.48443 11.63012 7626 ft 101 kts 102°
2026-04-25 20:52 46.48326 11.63735 8348 ft 51 kts 147°
2026-04-25 20:52 46.48109 11.63808 8634 ft 67 kts 175°
2026-04-25 20:52 46.47178 11.63885 8764 ft 123 kts 176°
2026-04-25 20:52 46.46238 11.63565 8408 ft 152 kts 197°
2026-04-25 20:53 46.45326 11.62884 8442 ft 145 kts 200°
2026-04-25 20:53 46.44346 11.62698 8490 ft 141 kts 182°
2026-04-25 20:53 46.43381 11.62428 8465 ft 146 kts 174°
2026-04-25 20:53 46.42421 11.63002 8030 ft 161 kts 149°
2026-04-25 20:54 46.41589 11.63870 8201 ft 127 kts 121°
2026-04-25 20:54 46.41553 11.64994 8415 ft 123 kts 71°
2026-04-25 20:54 46.41923 11.66200 8289 ft 136 kts 65°
2026-04-25 20:54 46.42317 11.67435 8257 ft 133 kts 68°
2026-04-25 20:55 46.42643 11.68607 8464 ft 121 kts 69°
2026-04-25 20:55 46.42990 11.69637 8816 ft 105 kts 57°
2026-04-25 20:55 46.43361 11.70621 8818 ft 123 kts 69°
2026-04-25 20:55 46.43564 11.71841 8858 ft 126 kts 81°
2026-04-25 20:56 46.43520 11.73204 8488 ft 149 kts 94°
2026-04-25 20:56 46.43534 11.74654 8427 ft 139 kts 88°
2026-04-25 20:56 46.43561 11.76004 8477 ft 129 kts 86°
2026-04-25 20:56 46.43695 11.77221 8716 ft 119 kts 79°
2026-04-25 20:57 46.43814 11.78442 8716 ft 128 kts 84°
2026-04-25 20:57 46.43806 11.79717 8886 ft 120 kts 92°
2026-04-25 20:57 46.43758 11.80879 9078 ft 117 kts 90°
2026-04-25 20:57 46.43675 11.82121 9063 ft 123 kts 100°
2026-04-25 20:58 46.43409 11.83216 9313 ft 112 kts 108°
2026-04-25 20:58 46.43145 11.84331 9344 ft 122 kts 106°
2026-04-25 20:58 46.42886 11.85567 9339 ft 128 kts 102°
2026-04-25 20:58 46.42722 11.86766 9529 ft 124 kts 98°
2026-04-25 20:59 46.42519 11.87962 9760 ft 117 kts 98°
2026-04-25 20:59 46.42512 11.89127 9964 ft 116 kts 81°
2026-04-25 20:59 46.42584 11.90268 10225 ft 114 kts 85°
2026-04-25 20:59 46.42628 11.91416 10409 ft 119 kts 79°
2026-04-25 21:00 46.42753 11.92635 10578 ft 122 kts 79°
2026-04-25 21:00 46.42795 11.93029 10626 ft 123 kts 77°
2026-04-25 21:00 46.43257 11.96762 10108 ft 149 kts 82°
2026-04-25 21:01 46.43315 11.98254 9861 ft 154 kts 75°
2026-04-25 21:01 46.43903 11.99533 9541 ft 156 kts 47°
2026-04-25 21:01 46.44793 12.00485 9184 ft 160 kts 31°
2026-04-25 21:01 46.45809 12.01137 8777 ft 165 kts 25°
2026-04-25 21:02 46.46873 12.01725 8466 ft 159 kts 26°
2026-04-25 21:02 46.47841 12.02446 8182 ft 157 kts 32°
2026-04-25 21:02 46.48790 12.03122 8166 ft 143 kts 28°
2026-04-25 21:02 46.49627 12.03732 8270 ft 133 kts 33°
2026-04-25 21:03 46.50390 12.04517 8288 ft 129 kts 41°
2026-04-25 21:03 46.50979 12.05359 8636 ft 109 kts 66°
2026-04-25 21:03 46.50532 12.05692 9034 ft 106 kts 210°
2026-04-25 21:03 46.49857 12.05078 8591 ft 118 kts 210°
2026-04-25 21:04 46.49449 12.04448 8506 ft 54 kts 307°
2026-04-25 21:04 46.49918 12.04186 8241 ft 96 kts
2026-04-25 21:04 46.50629 12.04419 8280 ft 110 kts 22°
2026-04-25 21:04 46.51370 12.04822 8366 ft 112 kts 26°
2026-04-25 21:05 46.51989 12.05283 8766 ft 92 kts 30°
2026-04-25 21:05 46.52538 12.05770 8986 ft 98 kts 33°
2026-04-25 21:05 46.53160 12.06058 9317 ft 90 kts
2026-04-25 21:05 46.53713 12.06092 9761 ft 71 kts
2026-04-25 21:06 46.54195 12.06259 10120 ft 69 kts 14°
2026-04-25 21:06 46.54588 12.06380 10545 ft 54 kts 356°
2026-04-25 21:06 46.54920 12.06523 10870 ft 52 kts 358°
2026-04-25 21:06 46.55033 12.06473 10965 ft 56 kts 328°
2026-04-25 21:07 46.55551 12.06403 11528 ft 40 kts 16°
2026-04-25 21:07 46.55964 12.06581 11506 ft 91 kts 17°
2026-04-25 21:07 46.56549 12.07092 11551 ft 109 kts 32°
2026-04-25 21:07 46.57294 12.07158 11470 ft 121 kts 335°
2026-04-25 21:08 46.58017 12.06357 11231 ft 135 kts 317°
2026-04-25 21:08 46.58630 12.05292 11032 ft 140 kts 310°
2026-04-25 21:08 46.59234 12.04193 10937 ft 137 kts 314°
2026-04-25 21:08 46.59898 12.03200 10814 ft 140 kts 318°
2026-04-25 21:09 46.61243 12.01099 10434 ft 146 kts 310°
2026-04-25 21:09 46.61863 11.99978 10326 ft 143 kts 307°
2026-04-25 21:09 46.62303 11.98671 10187 ft 144 kts 292°
2026-04-25 21:10 46.62576 11.97267 10052 ft 146 kts 282°
2026-04-25 21:10 46.62616 11.95817 9964 ft 145 kts 268°
2026-04-25 21:10 46.62435 11.94393 9959 ft 138 kts 255°
2026-04-25 21:10 46.62107 11.93132 10048 ft 133 kts 245°
2026-04-25 21:11 46.61650 11.91980 10131 ft 132 kts 235°
2026-04-25 21:11 46.61062 11.90924 10061 ft 137 kts 231°
2026-04-25 21:11 46.60482 11.89779 9900 ft 145 kts 232°
2026-04-25 21:11 46.59772 11.88695 9727 ft 149 kts 220°
2026-04-25 21:12 46.58947 11.87761 9519 ft 153 kts 217°
2026-04-25 21:12 46.58097 11.86790 9257 ft 157 kts 219°
2026-04-25 21:12 46.57270 11.85740 9026 ft 156 kts 222°
2026-04-25 21:12 46.57010 11.85378 8964 ft 156 kts 224°
2026-04-25 21:13 46.55804 11.83427 8713 ft 147 kts 226°
2026-04-25 21:13 46.55146 11.82285 8584 ft 151 kts 236°
2026-04-25 21:13 46.54757 11.80883 8520 ft 148 kts 260°
2026-04-25 21:13 46.54788 11.79407 8376 ft 149 kts 276°
2026-04-25 21:14 46.54865 11.77910 8234 ft 149 kts 278°
2026-04-25 21:14 46.54964 11.76411 8083 ft 152 kts 275°
2026-04-25 21:14 46.55057 11.74923 8111 ft 140 kts 280°
2026-04-25 21:14 46.55241 11.73620 8308 ft 127 kts 283°
2026-04-25 21:15 46.55421 11.72446 8595 ft 112 kts 284°
2026-04-25 21:15 46.55583 11.71264 8566 ft 126 kts 285°
2026-04-25 21:15 46.55815 11.69956 8035 ft 147 kts 291°
2026-04-25 21:15 46.56162 11.68493 7181 ft 164 kts 295°
2026-04-25 21:16 46.56496 11.66951 6400 ft 163 kts 290°
2026-04-25 21:16 46.56798 11.65423 5761 ft 148 kts 297°
2026-04-25 21:16 46.57396 11.64402 5288 ft 127 kts 340°
2026-04-25 21:16 46.58175 11.63909 4688 ft 129 kts 343°
2026-04-25 21:17 46.58878 11.63390 4403 ft 92 kts 334°
2026-04-25 21:17 46.59037 11.62698 4150 ft 73 kts 232°
2026-04-25 21:17 46.58718 11.62714 3955 ft 42 kts 125°
2026-04-25 21:17 46.58663 11.62921 3835 ft 11 kts 53°
2026-04-25 21:18 46.58677 11.63014 3780 ft 6 kts 36°
2026-04-25 21:18 46.58694 11.63043 3729 ft 0 kts 43°
2026-04-25 21:18 46.58695 11.63047 3723 ft 0 kts 33°